createdAt,value
2022-10-04T00:00:49.575Z,14.12
2022-10-04T00:01:51.778Z,14.20
2022-10-04T00:02:51.977Z,14.26
2022-10-04T00:03:52.128Z,14.25
2022-10-04T00:04:53.287Z,14.22
2022-10-04T00:05:51.065Z,14.23
2022-10-04T00:06:52.324Z,14.25
2022-10-04T00:07:53.678Z,14.37
2022-10-04T00:08:51.925Z,14.41
2022-10-04T00:09:55.076Z,14.43
2022-10-04T00:10:52.473Z,14.45
2022-10-04T00:11:55.267Z,14.44
2022-10-04T00:12:53.051Z,14.36
2022-10-04T00:13:55.222Z,14.45
2022-10-04T00:14:55.402Z,14.45
2022-10-04T00:15:54.107Z,14.47
2022-10-04T00:16:54.746Z,14.53
2022-10-04T00:17:54.488Z,14.55
2022-10-04T00:18:54.793Z,14.53
2022-10-04T00:19:56.987Z,14.50
2022-10-04T00:20:55.366Z,14.48
2022-10-04T00:21:57.537Z,14.45
2022-10-04T00:22:57.728Z,14.48
2022-10-04T00:23:56.227Z,14.50
2022-10-04T00:24:58.408Z,14.50
2022-10-04T00:25:58.596Z,14.47
2022-10-04T00:26:58.850Z,14.36
2022-10-04T00:27:57.448Z,14.23
2022-10-04T00:28:57.700Z,14.07
2022-10-04T00:29:59.885Z,14.05
2022-10-04T00:31:00.091Z,14.03
2022-10-04T00:32:00.257Z,14.04
2022-10-04T00:32:58.892Z,14.07
2022-10-04T00:34:00.175Z,14.07
2022-10-04T00:35:00.392Z,14.11
2022-10-04T00:36:00.556Z,14.14
2022-10-04T00:37:01.941Z,14.18
2022-10-04T00:38:00.330Z,14.17
2022-10-04T00:39:00.636Z,14.18
2022-10-04T00:40:00.956Z,14.20
2022-10-04T00:41:01.273Z,14.20
2022-10-04T00:42:03.446Z,14.17
2022-10-04T00:43:02.009Z,14.18
2022-10-04T00:44:02.159Z,14.25
2022-10-04T00:45:02.476Z,14.26
2022-10-04T00:46:02.825Z,14.28
2022-10-04T00:47:04.974Z,14.28
2022-10-04T00:48:04.161Z,14.25
2022-10-04T00:49:03.625Z,14.29
2022-10-04T00:50:03.933Z,14.30
2022-10-04T00:51:06.129Z,14.22
2022-10-04T00:52:06.447Z,14.29
2022-10-04T00:53:06.490Z,14.29
2022-10-04T00:54:05.122Z,14.33
2022-10-04T00:55:07.281Z,14.30
2022-10-04T00:56:08.416Z,14.32
2022-10-04T00:57:07.654Z,14.29
2022-10-04T00:58:08.163Z,14.28
2022-10-04T00:59:06.589Z,14.32
2022-10-04T01:00:08.791Z,14.30
2022-10-04T01:01:08.173Z,14.29
2022-10-04T01:02:07.510Z,14.23
2022-10-04T01:03:09.617Z,14.26
2022-10-04T01:04:08.019Z,14.25
2022-10-04T01:05:10.179Z,14.28
2022-10-04T01:06:09.444Z,14.29
2022-10-04T01:07:10.797Z,14.23
2022-10-04T01:08:09.059Z,14.22
2022-10-04T01:09:09.374Z,14.15
2022-10-04T01:10:11.557Z,14.11
2022-10-04T01:11:10.966Z,14.08
2022-10-04T01:12:12.326Z,14.03
2022-10-04T01:13:10.463Z,13.93
2022-10-04T01:14:10.775Z,13.96
2022-10-04T01:15:12.969Z,14.03
2022-10-04T01:16:11.522Z,13.93
2022-10-04T01:17:13.559Z,13.93
2022-10-04T01:18:13.739Z,13.93
2022-10-04T01:19:14.113Z,14.00
2022-10-04T01:20:14.077Z,14.04
2022-10-04T01:21:15.729Z,14.03
2022-10-04T01:22:14.965Z,14.11
2022-10-04T01:23:13.367Z,14.08
2022-10-04T01:24:13.668Z,14.04
2022-10-04T01:25:14.793Z,14.04
2022-10-04T01:26:17.160Z,14.03
2022-10-04T01:27:16.394Z,13.95
2022-10-04T01:28:14.831Z,13.90
2022-10-04T01:29:16.959Z,13.96
2022-10-04T01:30:17.165Z,14.04
2022-10-04T01:31:19.652Z,13.99
2022-10-04T01:32:18.037Z,13.92
2022-10-04T01:33:18.221Z,13.97
2022-10-04T01:34:18.409Z,14.07
2022-10-04T01:35:18.947Z,14.07
2022-10-04T01:36:20.616Z,14.04
2022-10-04T01:37:17.509Z,13.96
2022-10-04T01:38:19.696Z,14.08
2022-10-04T01:39:19.878Z,14.08
2022-10-04T01:40:20.071Z,14.11
2022-10-04T01:41:21.189Z,14.07
2022-10-04T01:42:20.963Z,14.17
2022-10-04T01:43:21.145Z,14.26
2022-10-04T01:44:21.304Z,14.15
2022-10-04T01:45:21.498Z,14.17
2022-10-04T01:46:22.733Z,14.25
2022-10-04T01:47:21.911Z,14.22
2022-10-04T01:48:20.673Z,14.10
2022-10-04T01:49:20.982Z,14.07
2022-10-04T01:50:23.181Z,14.08
2022-10-04T01:51:24.334Z,14.00
2022-10-04T01:52:23.589Z,14.05
2022-10-04T01:53:23.733Z,14.05
2022-10-04T01:54:23.897Z,13.99
2022-10-04T01:55:24.579Z,13.99
2022-10-04T01:56:25.809Z,14.05
2022-10-04T01:57:23.213Z,14.05
2022-10-04T01:58:25.507Z,14.22
2022-10-04T01:59:25.564Z,14.17
2022-10-04T02:00:25.724Z,14.35
2022-10-04T02:01:27.256Z,14.29
2022-10-04T02:02:24.747Z,14.30
2022-10-04T02:03:26.920Z,14.37
2022-10-04T02:04:25.371Z,14.50
2022-10-04T02:05:27.480Z,14.41
2022-10-04T02:06:26.846Z,14.33
2022-10-04T02:07:26.209Z,14.30
2022-10-04T02:08:28.404Z,14.33
2022-10-04T02:09:26.775Z,14.25
2022-10-04T02:10:27.097Z,14.32
2022-10-04T02:11:29.876Z,14.23
2022-10-04T02:12:27.653Z,14.30
2022-10-04T02:13:29.827Z,14.32
2022-10-04T02:14:28.196Z,14.32
2022-10-04T02:15:28.505Z,14.45
2022-10-04T02:16:29.648Z,14.35
2022-10-04T02:17:29.108Z,14.36
2022-10-04T02:18:31.295Z,14.35
2022-10-04T02:19:29.659Z,14.32
2022-10-04T02:20:31.844Z,14.41
2022-10-04T02:21:31.259Z,14.32
2022-10-04T02:22:32.473Z,14.25
2022-10-04T02:23:32.649Z,14.29
2022-10-04T02:24:31.909Z,14.23
2022-10-04T02:25:33.259Z,14.18
2022-10-04T02:26:34.458Z,14.30
2022-10-04T02:27:33.659Z,14.36
2022-10-04T02:28:33.868Z,14.30
2022-10-04T02:29:34.010Z,14.26
2022-10-04T02:30:34.707Z,14.30
2022-10-04T02:31:35.905Z,14.37
2022-10-04T02:32:34.400Z,14.48
2022-10-04T02:33:33.769Z,14.53
2022-10-04T02:34:35.944Z,14.59
2022-10-04T02:35:34.343Z,14.58
2022-10-04T02:36:36.654Z,14.55
2022-10-04T02:37:34.921Z,14.62
2022-10-04T02:38:35.220Z,14.69
2022-10-04T02:39:35.531Z,14.65
2022-10-04T02:40:35.845Z,14.70
2022-10-04T02:41:39.121Z,14.53
2022-10-04T02:42:36.440Z,14.54
2022-10-04T02:43:36.758Z,14.65
2022-10-04T02:44:37.064Z,14.53
2022-10-04T02:45:37.738Z,14.55
2022-10-04T02:46:40.644Z,14.54
2022-10-04T02:47:37.903Z,14.58
2022-10-04T02:48:38.193Z,14.69
2022-10-04T02:49:38.481Z,14.78
2022-10-04T02:50:38.790Z,14.79
2022-10-04T02:51:40.790Z,14.73
2022-10-04T02:52:39.385Z,14.65
2022-10-04T02:53:39.695Z,14.65
2022-10-04T02:54:40.000Z,14.84
2022-10-04T02:55:40.312Z,14.70
2022-10-04T02:56:41.674Z,14.81
2022-10-04T02:57:40.905Z,14.89
2022-10-04T02:58:41.211Z,14.99
2022-10-04T02:59:41.507Z,14.91
2022-10-04T03:00:41.851Z,14.91
2022-10-04T03:01:45.234Z,14.96
2022-10-04T03:02:44.232Z,14.92
2022-10-04T03:03:44.385Z,14.84
2022-10-04T03:04:44.532Z,15.00
2022-10-04T03:05:45.223Z,15.07
2022-10-04T03:06:46.393Z,15.07
2022-10-04T03:07:45.629Z,15.07
2022-10-04T03:08:45.803Z,15.14
2022-10-04T03:09:46.492Z,15.21
2022-10-04T03:10:46.679Z,15.28
2022-10-04T03:11:47.851Z,15.27
2022-10-04T03:12:47.081Z,15.29
2022-10-04T03:13:47.785Z,15.27
2022-10-04T03:14:47.964Z,15.27
2022-10-04T03:15:48.225Z,15.24
2022-10-04T03:16:48.677Z,15.27
2022-10-04T03:17:47.075Z,15.31
2022-10-04T03:18:49.254Z,15.36
2022-10-04T03:19:47.644Z,15.14
2022-10-04T03:20:49.826Z,15.03
2022-10-04T03:21:51.014Z,15.09
2022-10-04T03:22:50.196Z,15.17
2022-10-04T03:23:48.899Z,15.04
2022-10-04T03:24:49.069Z,15.04
2022-10-04T03:25:49.377Z,14.96
2022-10-04T03:26:49.716Z,15.03
2022-10-04T03:27:51.922Z,14.96
2022-10-04T03:28:52.069Z,15.03
2022-10-04T03:29:55.704Z,14.99
2022-10-04T03:30:51.890Z,15.03
2022-10-04T03:31:51.370Z,15.14
2022-10-04T03:32:53.387Z,15.02
2022-10-04T03:33:53.582Z,15.14
2022-10-04T03:34:53.760Z,15.24
2022-10-04T03:35:53.948Z,15.25
2022-10-04T03:36:54.439Z,15.31
2022-10-04T03:37:54.817Z,15.33
2022-10-04T03:38:54.966Z,15.31
2022-10-04T03:39:55.140Z,15.22
2022-10-04T03:40:55.327Z,15.17
2022-10-04T03:41:55.496Z,15.22
2022-10-04T03:42:56.176Z,15.18
2022-10-04T03:43:56.360Z,15.14
2022-10-04T03:44:56.546Z,15.17
2022-10-04T03:45:56.802Z,15.28
2022-10-04T03:46:57.434Z,15.21
2022-10-04T03:47:57.619Z,15.11
2022-10-04T03:48:57.770Z,15.14
2022-10-04T03:49:56.451Z,15.06
2022-10-04T03:50:56.567Z,15.09
2022-10-04T03:51:56.862Z,15.03
2022-10-04T03:52:57.159Z,14.92
2022-10-04T03:53:59.358Z,15.02
2022-10-04T03:54:57.729Z,14.96
2022-10-04T03:56:04.041Z,15.00
2022-10-04T03:56:58.299Z,14.99
2022-10-04T03:58:00.474Z,15.04
2022-10-04T03:58:58.847Z,15.07
2022-10-04T04:00:01.034Z,14.97
2022-10-04T04:00:59.482Z,14.99
2022-10-04T04:01:59.674Z,15.06
2022-10-04T04:03:02.765Z,15.10
2022-10-04T04:04:03.014Z,15.06
2022-10-04T04:05:00.541Z,15.02
2022-10-04T04:06:00.864Z,14.89
2022-10-04T04:07:01.168Z,15.06
2022-10-04T04:08:01.465Z,15.02
2022-10-04T04:09:05.139Z,15.04
2022-10-04T04:10:03.973Z,15.10
2022-10-04T04:11:02.356Z,15.09
2022-10-04T04:12:02.656Z,15.21
2022-10-04T04:13:02.942Z,15.17
2022-10-04T04:14:04.198Z,15.09
2022-10-04T04:15:05.444Z,15.17
2022-10-04T04:16:03.872Z,15.21
2022-10-04T04:17:04.118Z,15.10
2022-10-04T04:18:04.966Z,15.00
2022-10-04T04:19:08.118Z,15.14
2022-10-04T04:20:07.617Z,15.14
2022-10-04T04:21:06.089Z,15.11
2022-10-04T04:22:06.501Z,15.02
2022-10-04T04:23:06.674Z,15.03
2022-10-04T04:24:09.021Z,15.07
2022-10-04T04:25:08.330Z,15.07
2022-10-04T04:26:07.643Z,15.00
2022-10-04T04:27:07.007Z,15.00
2022-10-04T04:28:07.356Z,15.03
2022-10-04T04:29:10.490Z,15.02
2022-10-04T04:30:07.896Z,14.92
2022-10-04T04:31:11.173Z,14.91
2022-10-04T04:32:08.593Z,14.96
2022-10-04T04:33:08.759Z,15.04
2022-10-04T04:34:11.502Z,15.09
2022-10-04T04:35:09.494Z,15.09
2022-10-04T04:36:09.679Z,14.99
2022-10-04T04:37:11.889Z,15.02
2022-10-04T04:38:10.271Z,15.18
2022-10-04T04:39:13.421Z,15.10
2022-10-04T04:40:11.686Z,15.11
2022-10-04T04:41:12.001Z,15.07
2022-10-04T04:42:11.373Z,15.06
2022-10-04T04:43:11.677Z,14.99
2022-10-04T04:44:15.362Z,14.94
2022-10-04T04:45:12.278Z,15.11
2022-10-04T04:46:27.049Z,15.24
2022-10-04T04:47:17.576Z,15.27
2022-10-04T04:48:15.101Z,15.21
2022-10-04T04:49:16.283Z,15.07
2022-10-04T04:50:13.816Z,15.03
2022-10-04T04:51:14.259Z,15.11
2022-10-04T04:52:14.401Z,15.02
2022-10-04T04:53:14.702Z,14.94
2022-10-04T04:54:18.372Z,14.88
2022-10-04T04:55:15.277Z,14.88
2022-10-04T04:56:18.079Z,14.91
2022-10-04T04:57:15.822Z,14.89
2022-10-04T04:58:16.115Z,14.85
2022-10-04T04:59:19.775Z,14.85
2022-10-04T05:00:16.685Z,14.91
2022-10-04T05:01:18.039Z,14.96
2022-10-04T05:02:19.265Z,14.86
2022-10-04T05:03:19.369Z,14.89
2022-10-04T05:04:21.086Z,14.86
2022-10-04T05:05:19.813Z,14.88
2022-10-04T05:06:19.997Z,14.78
2022-10-04T05:07:20.173Z,14.73
2022-10-04T05:08:22.341Z,14.79
2022-10-04T05:09:22.076Z,14.73
2022-10-04T05:10:21.315Z,14.70
2022-10-04T05:11:21.510Z,14.69
2022-10-04T05:12:21.663Z,14.73
2022-10-04T05:13:22.335Z,14.84
2022-10-04T05:14:23.530Z,14.94
2022-10-04T05:15:22.752Z,14.86
2022-10-04T05:16:23.007Z,14.82
2022-10-04T05:17:23.134Z,14.84
2022-10-04T05:18:21.903Z,14.86
2022-10-04T05:19:23.046Z,14.81
2022-10-04T05:20:24.464Z,14.84
2022-10-04T05:21:22.846Z,14.78
2022-10-04T05:22:23.183Z,14.69
2022-10-04T05:23:23.515Z,14.68
2022-10-04T05:24:24.869Z,14.81
2022-10-04T05:25:26.057Z,14.84
2022-10-04T05:26:24.350Z,14.68
2022-10-04T05:27:24.683Z,14.78
2022-10-04T05:28:25.061Z,14.86
2022-10-04T05:29:28.667Z,14.78
2022-10-04T05:30:27.590Z,14.84
2022-10-04T05:31:25.938Z,14.86
2022-10-04T05:32:28.052Z,14.65
2022-10-04T05:33:29.563Z,14.66
2022-10-04T05:34:29.688Z,14.73
2022-10-04T05:36:25.017Z,14.84
2022-10-04T05:37:26.253Z,14.84
2022-10-04T05:38:24.536Z,14.85
2022-10-04T05:39:24.971Z,14.73
2022-10-04T05:40:27.143Z,14.70
2022-10-04T05:41:26.636Z,14.70
2022-10-04T05:42:25.724Z,14.66
2022-10-04T05:43:26.922Z,14.72
2022-10-04T05:44:29.082Z,14.78
2022-10-04T05:45:27.517Z,14.77
2022-10-04T05:46:27.868Z,14.84
2022-10-04T05:47:27.162Z,14.81
2022-10-04T05:48:29.334Z,14.88
2022-10-04T05:49:30.491Z,14.85
2022-10-04T05:50:29.724Z,14.81
2022-10-04T05:51:29.889Z,14.78
2022-10-04T05:52:30.077Z,14.77
2022-10-04T05:53:30.760Z,14.69
2022-10-04T05:54:32.428Z,14.82
2022-10-04T05:55:31.168Z,14.69
2022-10-04T05:56:31.365Z,14.78
2022-10-04T05:57:31.733Z,14.69
2022-10-04T05:58:31.815Z,14.70
2022-10-04T05:59:32.954Z,14.77
2022-10-04T06:00:32.659Z,14.73
2022-10-04T06:01:32.942Z,14.69
2022-10-04T06:02:33.071Z,14.79
2022-10-04T06:03:33.219Z,14.73
2022-10-04T06:04:32.973Z,14.79
2022-10-04T06:05:32.258Z,14.82
2022-10-04T06:06:34.451Z,14.73
2022-10-04T06:07:32.750Z,14.79
2022-10-04T06:08:32.977Z,14.79
2022-10-04T06:09:34.308Z,14.78
2022-10-04T06:10:33.577Z,14.81
2022-10-04T06:11:35.762Z,14.84
2022-10-04T06:12:35.951Z,14.73
2022-10-04T06:13:36.140Z,14.81
2022-10-04T06:14:35.686Z,14.70
2022-10-04T06:15:36.931Z,14.78
2022-10-04T06:16:37.418Z,14.84
2022-10-04T06:17:37.550Z,14.63
2022-10-04T06:18:35.826Z,14.70
2022-10-04T06:19:38.075Z,14.73
2022-10-04T06:20:36.500Z,14.79
2022-10-04T06:21:38.691Z,14.84
2022-10-04T06:22:38.846Z,14.89
2022-10-04T06:23:37.481Z,14.78
2022-10-04T06:24:39.690Z,14.89
2022-10-04T06:25:37.980Z,14.99
2022-10-04T06:26:40.165Z,14.86
2022-10-04T06:27:40.346Z,14.99
2022-10-04T06:28:40.531Z,14.99
2022-10-04T06:29:40.722Z,14.96
2022-10-04T06:30:39.445Z,14.91
2022-10-04T06:31:39.673Z,15.02
2022-10-04T06:32:39.902Z,14.89
2022-10-04T06:33:40.146Z,15.02
2022-10-04T06:34:42.322Z,14.99
2022-10-04T06:35:41.607Z,14.92
2022-10-04T06:36:40.892Z,15.00
2022-10-04T06:37:43.063Z,14.92
2022-10-04T06:38:41.367Z,14.91
2022-10-04T06:39:42.604Z,14.89
2022-10-04T06:40:42.022Z,15.00
2022-10-04T06:41:42.951Z,15.03
2022-10-04T06:42:42.511Z,14.91
2022-10-04T06:43:42.855Z,15.02
2022-10-04T06:44:46.568Z,15.00
2022-10-04T06:45:43.498Z,15.02
2022-10-04T06:46:43.994Z,15.09
2022-10-04T06:47:44.055Z,15.10
2022-10-04T06:48:44.389Z,15.17
2022-10-04T06:49:46.577Z,15.07
2022-10-04T06:50:44.849Z,15.14
2022-10-04T06:51:47.083Z,15.11
2022-10-04T06:52:45.443Z,15.25
2022-10-04T06:53:45.678Z,15.17
2022-10-04T06:54:47.829Z,15.19
2022-10-04T06:55:46.255Z,15.10
2022-10-04T06:56:48.426Z,15.14
2022-10-04T06:57:48.617Z,15.28
2022-10-04T06:58:47.039Z,15.37
2022-10-04T06:59:47.262Z,15.49
2022-10-04T07:00:47.650Z,15.35
2022-10-04T07:01:49.871Z,15.24
2022-10-04T07:02:48.208Z,15.31
2022-10-04T07:03:51.791Z,15.46
2022-10-04T07:05:07.564Z,15.40
2022-10-04T07:05:51.895Z,15.31
2022-10-04T07:06:49.309Z,15.49
2022-10-04T07:07:49.656Z,15.59
2022-10-04T07:08:51.833Z,15.37
2022-10-04T07:09:50.121Z,15.49
2022-10-04T07:10:52.291Z,15.43
2022-10-04T07:11:50.620Z,15.51
2022-10-04T07:12:50.851Z,15.62
2022-10-04T07:13:54.545Z,15.67
2022-10-04T07:14:53.287Z,15.76
2022-10-04T07:15:53.528Z,15.72
2022-10-04T07:16:51.949Z,15.79
2022-10-04T07:17:52.281Z,15.92
2022-10-04T07:18:53.545Z,16.00
2022-10-04T07:19:53.774Z,15.91
2022-10-04T07:20:56.469Z,15.80
2022-10-04T07:21:54.086Z,15.86
2022-10-04T07:22:54.501Z,15.97
2022-10-04T07:23:56.862Z,16.05
2022-10-04T07:24:56.062Z,16.15
2022-10-04T07:25:55.493Z,16.08
2022-10-04T07:26:55.658Z,15.94
2022-10-04T07:27:56.095Z,16.10
2022-10-04T07:28:58.306Z,16.16
2022-10-04T07:29:57.494Z,16.02
2022-10-04T07:30:56.848Z,16.09
2022-10-04T07:31:59.626Z,15.97
2022-10-04T07:32:57.384Z,16.13
2022-10-04T07:34:00.109Z,16.31
2022-10-04T07:34:58.823Z,16.28
2022-10-04T07:35:57.289Z,16.26
2022-10-04T07:36:57.535Z,16.21
2022-10-04T07:37:59.717Z,16.42
2022-10-04T07:38:58.017Z,16.41
2022-10-04T07:40:00.207Z,16.39
2022-10-04T07:40:58.517Z,16.35
2022-10-04T07:41:59.590Z,16.53
2022-10-04T07:42:59.021Z,16.53
2022-10-04T07:44:01.181Z,16.53
2022-10-04T07:44:59.603Z,16.35
2022-10-04T07:46:01.846Z,16.29
2022-10-04T07:47:01.101Z,16.42
2022-10-04T07:48:01.319Z,16.49
2022-10-04T07:49:02.554Z,16.56
2022-10-04T07:50:02.783Z,16.43
2022-10-04T07:51:02.944Z,16.29
2022-10-04T07:52:01.364Z,16.15
2022-10-04T07:53:04.890Z,16.21
2022-10-04T07:54:02.889Z,16.12
2022-10-04T07:55:03.076Z,16.09
2022-10-04T07:56:04.269Z,16.12
2022-10-04T07:57:04.491Z,16.17
2022-10-04T07:58:05.164Z,16.32
2022-10-04T07:59:05.409Z,16.31
2022-10-04T08:00:06.501Z,16.16
2022-10-04T08:01:05.740Z,16.33
2022-10-04T08:02:05.140Z,16.32
2022-10-04T08:03:07.940Z,16.33
2022-10-04T08:04:04.760Z,16.26
2022-10-04T08:05:06.967Z,16.12
2022-10-04T08:06:05.302Z,16.20
2022-10-04T08:07:05.536Z,16.28
2022-10-04T08:08:09.345Z,16.15
2022-10-04T08:09:06.597Z,16.23
2022-10-04T08:10:06.273Z,16.29
2022-10-04T08:11:08.455Z,16.23
2022-10-04T08:12:06.772Z,16.20
2022-10-04T08:13:10.514Z,16.35
2022-10-04T08:14:09.241Z,16.35
2022-10-04T08:15:07.879Z,16.12
2022-10-04T08:16:07.975Z,16.17
2022-10-04T08:17:15.231Z,16.33
2022-10-04T08:18:10.445Z,16.38
2022-10-04T08:19:10.673Z,16.26
2022-10-04T08:20:10.942Z,16.33
2022-10-04T08:21:11.134Z,16.39
2022-10-04T08:22:11.339Z,16.53
2022-10-04T08:23:12.957Z,16.50
2022-10-04T08:24:10.256Z,16.61
2022-10-04T08:25:12.442Z,16.56
2022-10-04T08:26:12.627Z,16.81
2022-10-04T08:27:12.849Z,16.89
2022-10-04T08:28:13.089Z,17.19
2022-10-04T08:29:13.224Z,17.72
2022-10-04T08:30:12.147Z,18.00
2022-10-04T08:31:15.183Z,18.47
2022-10-04T08:32:12.507Z,18.45
2022-10-04T08:33:14.691Z,18.88
2022-10-04T08:34:14.950Z,18.93
2022-10-04T08:35:15.120Z,18.93
2022-10-04T08:36:13.620Z,19.21
2022-10-04T08:37:15.815Z,19.54
2022-10-04T08:38:16.144Z,19.47
2022-10-04T08:39:16.624Z,18.77
2022-10-04T08:40:14.774Z,18.45
2022-10-04T08:41:16.926Z,18.52
2022-10-04T08:42:15.443Z,19.08
2022-10-04T08:43:17.456Z,19.24
2022-10-04T08:44:17.650Z,19.18
2022-10-04T08:45:18.344Z,19.67
2022-10-04T08:46:16.680Z,19.56
2022-10-04T08:47:21.826Z,19.73
2022-10-04T08:48:17.148Z,19.99
2022-10-04T08:49:17.393Z,19.67
2022-10-04T08:50:17.626Z,19.95
2022-10-04T08:51:20.312Z,20.36
2022-10-04T08:52:19.883Z,20.58
2022-10-04T08:53:20.442Z,20.63
2022-10-04T08:54:20.601Z,20.32
2022-10-04T08:55:20.804Z,20.19
2022-10-04T08:56:19.337Z,19.95
2022-10-04T08:57:19.583Z,20.02
2022-10-04T08:58:21.779Z,19.67
2022-10-04T08:59:20.099Z,20.13
2022-10-04T09:00:22.347Z,20.19
2022-10-04T09:01:20.684Z,19.82
2022-10-04T09:02:20.974Z,19.69
2022-10-04T09:03:24.975Z,19.48
2022-10-04T09:04:21.456Z,19.89
2022-10-04T09:05:25.107Z,20.11
2022-10-04T09:06:21.947Z,20.37
2022-10-04T09:07:22.172Z,20.56
2022-10-04T09:08:24.363Z,20.58
2022-10-04T09:09:22.672Z,20.10
2022-10-04T09:10:25.402Z,20.37
2022-10-04T09:11:23.278Z,20.28
2022-10-04T09:12:23.497Z,20.22
2022-10-04T09:13:23.713Z,20.44
2022-10-04T09:14:23.969Z,20.63
2022-10-04T09:15:26.147Z,20.36
2022-10-04T09:16:24.563Z,20.21
2022-10-04T09:17:25.543Z,20.31
2022-10-04T09:18:24.983Z,20.69
2022-10-04T09:19:25.218Z,20.80
2022-10-04T09:20:38.319Z,21.05
2022-10-04T09:21:26.728Z,20.62
2022-10-04T09:22:26.186Z,20.18
2022-10-04T09:23:28.247Z,19.85
2022-10-04T09:24:26.553Z,19.69
2022-10-04T09:25:26.781Z,19.56
2022-10-04T09:26:27.035Z,19.26
2022-10-04T09:27:53.757Z,19.67
2022-10-04T09:28:28.671Z,20.02
2022-10-04T09:29:27.917Z,20.80
2022-10-04T09:30:28.159Z,20.92
2022-10-04T09:31:31.356Z,21.05
2022-10-04T09:32:30.508Z,20.80
2022-10-04T09:33:29.903Z,20.44
2022-10-04T09:34:37.098Z,20.36
2022-10-04T09:35:29.514Z,20.82
2022-10-04T09:36:29.759Z,21.02
2022-10-04T09:37:33.443Z,20.77
2022-10-04T09:38:30.289Z,20.44
2022-10-04T09:39:32.454Z,20.56
2022-10-04T09:40:30.758Z,20.41
2022-10-04T09:41:31.024Z,20.32
2022-10-04T09:42:34.715Z,20.21
2022-10-04T09:43:32.511Z,20.14
2022-10-04T09:44:34.690Z,20.59
2022-10-04T09:45:32.152Z,20.99
2022-10-04T09:46:33.278Z,20.81
2022-10-04T09:47:34.696Z,20.90
2022-10-04T09:48:33.829Z,20.59
2022-10-04T09:49:36.166Z,20.80
2022-10-04T09:50:34.438Z,20.80
2022-10-04T09:51:34.570Z,21.12
2022-10-04T09:52:34.981Z,21.30
2022-10-04T09:53:35.142Z,20.82
2022-10-04T09:54:35.518Z,20.51
2022-10-04T09:55:36.784Z,20.69
2022-10-04T09:56:35.079Z,20.85
2022-10-04T09:57:38.779Z,20.81
2022-10-04T09:58:36.467Z,20.88
2022-10-04T09:59:36.829Z,20.84
2022-10-04T10:00:37.099Z,20.56
2022-10-04T10:01:37.247Z,20.81
2022-10-04T10:02:39.604Z,20.67
2022-10-04T10:03:36.898Z,20.81
2022-10-04T10:04:37.151Z,20.34
2022-10-04T10:05:39.331Z,20.69
2022-10-04T10:06:37.678Z,20.50
2022-10-04T10:07:38.923Z,20.72
2022-10-04T10:08:40.170Z,21.24
2022-10-04T10:09:38.476Z,21.14
2022-10-04T10:10:39.668Z,20.51
2022-10-04T10:11:39.067Z,20.40
2022-10-04T10:12:40.818Z,20.34
2022-10-04T10:13:41.550Z,20.63
2022-10-04T10:14:41.734Z,20.96
2022-10-04T10:15:41.990Z,21.24
2022-10-04T10:16:40.803Z,21.25
2022-10-04T10:17:43.591Z,21.05
2022-10-04T10:18:41.006Z,21.05
2022-10-04T10:19:43.182Z,20.95
2022-10-04T10:20:41.496Z,21.39
2022-10-04T10:21:41.888Z,21.83
2022-10-04T10:22:42.851Z,21.91
2022-10-04T10:23:44.232Z,21.62
2022-10-04T10:24:44.394Z,21.79
2022-10-04T10:25:42.826Z,21.93
2022-10-04T10:26:43.321Z,21.32
2022-10-04T10:27:46.716Z,21.32
2022-10-04T10:28:45.442Z,21.58
2022-10-04T10:29:45.638Z,21.77
2022-10-04T10:30:45.833Z,21.72
2022-10-04T10:31:48.004Z,21.50
2022-10-04T10:32:47.242Z,22.15
2022-10-04T10:33:46.490Z,21.58
2022-10-04T10:34:47.181Z,21.33
2022-10-04T10:35:47.360Z,21.12
2022-10-04T10:36:47.974Z,20.37
2022-10-04T10:37:48.702Z,20.29
2022-10-04T10:38:48.255Z,20.29
2022-10-04T10:39:48.643Z,20.09
2022-10-04T10:40:48.285Z,19.81
2022-10-04T10:41:48.951Z,19.47
2022-10-04T10:42:48.360Z,19.27
2022-10-04T10:43:49.778Z,19.34
2022-10-04T10:44:49.992Z,19.56
2022-10-04T10:45:48.426Z,20.00
2022-10-04T10:46:50.589Z,20.16
2022-10-04T10:47:51.757Z,20.13
2022-10-04T10:48:50.983Z,20.56
2022-10-04T10:49:49.542Z,20.90
2022-10-04T10:50:51.741Z,21.20
2022-10-04T10:51:50.067Z,21.32
2022-10-04T10:52:53.752Z,20.85
2022-10-04T10:53:50.572Z,19.96
2022-10-04T10:54:52.749Z,19.96
2022-10-04T10:55:51.120Z,20.31
2022-10-04T10:56:51.361Z,20.44
2022-10-04T10:57:53.602Z,20.74
2022-10-04T10:58:51.907Z,20.70
2022-10-04T10:59:54.093Z,20.81
2022-10-04T11:00:52.403Z,20.56
2022-10-04T11:01:52.705Z,20.43
2022-10-04T11:03:07.131Z,20.63
2022-10-04T11:03:56.077Z,20.80
2022-10-04T11:04:55.211Z,21.11
2022-10-04T11:05:53.759Z,20.84
2022-10-04T11:06:54.328Z,20.58
2022-10-04T11:07:54.269Z,20.52
2022-10-04T11:08:54.508Z,20.62
2022-10-04T11:09:56.700Z,20.47
2022-10-04T11:10:55.003Z,20.39
2022-10-04T11:11:55.246Z,20.60
2022-10-04T11:12:55.481Z,20.56
2022-10-04T11:13:57.683Z,20.24
2022-10-04T11:14:57.859Z,20.11
2022-10-04T11:15:56.302Z,20.40
2022-10-04T11:16:56.530Z,20.39
2022-10-04T11:17:56.780Z,20.31
2022-10-04T11:18:57.007Z,19.77
2022-10-04T11:19:57.252Z,19.85
2022-10-04T11:20:59.432Z,19.64
2022-10-04T11:21:57.741Z,19.45
2022-10-04T11:22:57.981Z,19.76
2022-10-04T11:23:58.222Z,19.69
2022-10-04T11:24:58.466Z,19.92
2022-10-04T11:26:00.651Z,19.54
2022-10-04T11:26:58.968Z,19.33
2022-10-04T11:27:59.248Z,19.95
2022-10-04T11:28:59.449Z,20.22
2022-10-04T11:29:59.695Z,20.09
2022-10-04T11:31:01.904Z,20.21
2022-10-04T11:32:00.184Z,20.44
2022-10-04T11:33:02.373Z,20.37
2022-10-04T11:34:01.046Z,20.14
2022-10-04T11:35:01.048Z,20.55
2022-10-04T11:36:01.330Z,20.81
2022-10-04T11:37:01.573Z,21.11
2022-10-04T11:38:01.815Z,21.00
2022-10-04T11:39:03.997Z,20.78
2022-10-04T11:40:04.201Z,20.93
2022-10-04T11:41:04.385Z,21.00
2022-10-04T11:42:04.570Z,21.14
2022-10-04T11:43:03.251Z,21.62
2022-10-04T11:44:03.490Z,21.57
2022-10-04T11:45:03.727Z,21.09
2022-10-04T11:46:08.507Z,20.93
2022-10-04T11:47:07.239Z,20.39
2022-10-04T11:48:06.332Z,20.55
2022-10-04T11:49:06.492Z,21.02
2022-10-04T11:50:05.061Z,21.22
2022-10-04T11:51:05.301Z,20.32
2022-10-04T11:52:07.501Z,20.41
2022-10-04T11:53:07.677Z,20.55
2022-10-04T11:54:06.126Z,20.65
2022-10-04T11:55:06.367Z,21.22
2022-10-04T11:56:06.611Z,21.80
2022-10-04T11:57:09.772Z,21.50
2022-10-04T11:58:12.074Z,21.14
2022-10-04T11:59:07.318Z,20.44
2022-10-04T12:00:07.548Z,20.50
2022-10-04T12:01:08.781Z,20.16
2022-10-04T12:02:11.465Z,19.73
2022-10-04T12:03:11.227Z,19.81
2022-10-04T12:04:08.754Z,19.91
2022-10-04T12:05:11.796Z,20.47
2022-10-04T12:06:10.701Z,20.78
2022-10-04T12:07:11.525Z,20.56
2022-10-04T12:08:11.650Z,20.66
2022-10-04T12:09:11.058Z,20.52
2022-10-04T12:10:11.237Z,20.77
2022-10-04T12:11:11.618Z,20.75
2022-10-04T12:12:14.327Z,20.24
2022-10-04T12:13:13.065Z,20.70
2022-10-04T12:14:11.384Z,20.80
2022-10-04T12:15:13.564Z,20.96
2022-10-04T12:16:11.897Z,21.05
2022-10-04T12:17:13.148Z,21.25
2022-10-04T12:18:12.550Z,21.67
2022-10-04T12:19:13.700Z,20.60
2022-10-04T12:20:16.010Z,20.72
2022-10-04T12:21:14.276Z,21.11
2022-10-04T12:22:13.791Z,20.96
2022-10-04T12:23:14.980Z,21.30
2022-10-04T12:24:14.434Z,20.95
2022-10-04T12:25:16.469Z,20.95
2022-10-04T12:26:19.111Z,21.05
2022-10-04T12:27:16.008Z,21.27
2022-10-04T12:28:15.495Z,21.24
2022-10-04T12:29:16.668Z,21.36
2022-10-04T12:30:17.894Z,20.99
2022-10-04T12:31:19.003Z,20.80
2022-10-04T12:32:17.317Z,20.97
2022-10-04T12:33:17.692Z,21.18
2022-10-04T12:34:17.893Z,21.40
2022-10-04T12:35:19.194Z,21.73
2022-10-04T12:36:19.493Z,21.73
2022-10-04T12:37:17.929Z,22.10
2022-10-04T12:38:18.174Z,22.26
2022-10-04T12:39:18.410Z,21.45
2022-10-04T12:40:19.612Z,21.03
2022-10-04T12:41:20.925Z,21.03
2022-10-04T12:42:19.236Z,20.82
2022-10-04T12:43:19.473Z,20.56
2022-10-04T12:44:21.663Z,20.69
2022-10-04T12:45:21.848Z,20.90
2022-10-04T12:46:21.996Z,21.02
2022-10-04T12:47:22.618Z,20.24
2022-10-04T12:48:22.778Z,20.43
2022-10-04T12:49:22.934Z,20.58
2022-10-04T12:50:23.123Z,20.84
2022-10-04T12:51:22.025Z,20.82
2022-10-04T12:52:23.057Z,21.05
2022-10-04T12:53:22.337Z,20.80
2022-10-04T12:54:24.521Z,20.84
2022-10-04T12:55:24.704Z,21.39
2022-10-04T12:56:25.001Z,21.82
2022-10-04T12:57:25.446Z,22.28